createdAt,value
2022-09-23T00:01:35.409Z,2.17
2022-09-23T00:04:08.774Z,2.60
2022-09-23T00:06:42.541Z,2.60
2022-09-23T00:09:13.309Z,2.63
2022-09-23T00:11:43.997Z,2.20
2022-09-23T00:14:14.877Z,2.47
2022-09-23T00:16:47.699Z,2.47
2022-09-23T00:19:21.648Z,2.37
2022-09-23T00:21:52.414Z,2.90
2022-09-23T00:24:23.203Z,2.60
2022-09-23T00:26:53.898Z,2.77
2022-09-23T00:29:24.542Z,2.20
2022-09-23T00:31:56.368Z,3.07
2022-09-23T00:34:29.747Z,2.33
2022-09-23T00:37:09.378Z,2.90
2022-09-23T00:39:45.716Z,3.17
2022-09-23T00:42:19.033Z,3.00
2022-09-23T00:45:01.136Z,2.43
2022-09-23T00:47:37.745Z,2.97
2022-09-23T00:50:19.059Z,2.77
2022-09-23T00:52:53.270Z,2.93
2022-09-23T00:55:27.857Z,2.80
2022-09-23T00:58:02.740Z,2.80
2022-09-23T01:00:36.294Z,3.20
2022-09-23T01:03:09.498Z,2.80
2022-09-23T01:05:43.515Z,2.50
2022-09-23T01:08:17.650Z,2.93
2022-09-23T01:10:55.064Z,2.73
2022-09-23T01:13:33.750Z,1.90
2022-09-23T01:16:11.139Z,2.80
2022-09-23T01:18:52.759Z,2.50
2022-09-23T01:21:41.618Z,2.60
2022-09-23T01:24:32.637Z,2.10
2022-09-23T01:27:13.111Z,2.30
2022-09-23T01:30:15.137Z,2.43
2022-09-23T01:33:00.540Z,2.60
2022-09-23T01:35:47.210Z,2.30
2022-09-23T01:38:34.545Z,2.37
2022-09-23T01:41:16.507Z,1.93
2022-09-23T01:43:56.823Z,2.07
2022-09-23T01:46:30.920Z,2.10
2022-09-23T01:49:11.684Z,1.87
2022-09-23T01:51:51.860Z,1.80
2022-09-23T01:54:28.920Z,1.90
2022-09-23T01:57:03.759Z,2.33
2022-09-23T01:59:37.929Z,2.53
2022-09-23T02:02:15.305Z,2.33
2022-09-23T02:04:54.223Z,2.43
2022-09-23T02:07:29.400Z,2.07
2022-09-23T02:10:05.868Z,1.90
2022-09-23T02:12:45.578Z,2.50
2022-09-23T02:15:20.611Z,1.97
2022-09-23T02:17:56.775Z,2.30
2022-09-23T02:20:33.670Z,1.90
2022-09-23T02:23:09.082Z,2.10
2022-09-23T02:25:47.754Z,2.30
2022-09-23T02:28:23.228Z,1.67
2022-09-23T02:30:57.840Z,1.83
2022-09-23T02:33:38.275Z,2.00
2022-09-23T02:36:18.019Z,2.23
2022-09-23T02:39:00.079Z,1.77
2022-09-23T02:41:37.512Z,2.13
2022-09-23T02:44:12.804Z,2.50
2022-09-23T02:46:44.620Z,1.90
2022-09-23T02:49:19.612Z,1.80
2022-09-23T02:51:57.558Z,1.80
2022-09-23T02:54:32.254Z,2.30
2022-09-23T02:57:05.545Z,2.10
2022-09-23T02:59:38.562Z,2.43
2022-09-23T03:02:38.116Z,2.20
2022-09-23T03:05:20.329Z,2.47
2022-09-23T03:08:05.431Z,2.37
2022-09-23T03:10:42.838Z,1.97
2022-09-23T03:13:20.539Z,1.87
2022-09-23T03:16:00.825Z,2.00
2022-09-23T03:18:40.301Z,2.30
2022-09-23T03:21:14.850Z,2.70
2022-09-23T03:23:49.958Z,1.87
2022-09-23T03:26:27.086Z,1.83
2022-09-23T03:28:58.712Z,2.10
2022-09-23T03:31:29.709Z,2.20
2022-09-23T03:34:03.769Z,1.97
2022-09-23T03:36:50.711Z,2.07
2022-09-23T03:39:32.694Z,1.97
2022-09-23T03:42:16.955Z,2.10
2022-09-23T03:44:48.805Z,1.70
2022-09-23T03:47:20.052Z,2.17
2022-09-23T03:49:52.398Z,2.23
2022-09-23T03:52:25.561Z,2.23
2022-09-23T03:55:01.756Z,1.80
2022-09-23T03:57:32.743Z,2.30
2022-09-23T04:00:03.740Z,2.33
2022-09-23T04:02:34.842Z,2.20
2022-09-23T04:05:06.419Z,1.63
2022-09-23T04:07:37.803Z,2.10
2022-09-23T04:10:14.758Z,1.90
2022-09-23T04:12:45.600Z,2.20
2022-09-23T04:15:21.930Z,2.10
2022-09-23T04:17:52.698Z,2.13
2022-09-23T04:20:23.534Z,2.07
2022-09-23T04:22:54.236Z,1.80
2022-09-23T04:25:27.525Z,1.87
2022-09-23T04:27:59.112Z,2.67
2022-09-23T04:30:29.955Z,2.10
2022-09-23T04:33:02.149Z,1.93
2022-09-23T04:35:36.636Z,1.83
2022-09-23T04:38:10.231Z,2.93
2022-09-23T04:40:43.573Z,2.73
2022-09-23T04:43:15.839Z,2.63
2022-09-23T04:45:46.967Z,2.07
2022-09-23T04:48:19.425Z,1.87
2022-09-23T04:50:52.427Z,2.40
2022-09-23T04:53:23.575Z,2.30
2022-09-23T04:55:59.523Z,2.60
2022-09-23T04:58:32.872Z,2.53
2022-09-23T05:01:12.919Z,2.40
2022-09-23T05:03:45.338Z,2.67
2022-09-23T05:06:21.991Z,3.00
2022-09-23T05:08:54.508Z,2.40
2022-09-23T05:11:32.914Z,2.30
2022-09-23T05:14:05.053Z,2.47
2022-09-23T05:16:39.951Z,2.80
2022-09-23T05:19:13.582Z,2.40
2022-09-23T05:21:46.964Z,2.70
2022-09-23T05:24:18.942Z,2.10
2022-09-23T05:27:06.739Z,2.97
2022-09-23T05:29:40.605Z,3.00
2022-09-23T05:32:14.609Z,2.90
2022-09-23T05:34:45.468Z,3.53
2022-09-23T05:37:16.219Z,2.50
2022-09-23T05:39:46.929Z,2.70
2022-09-23T05:42:21.395Z,3.00
2022-09-23T05:44:52.365Z,3.17
2022-09-23T05:47:23.387Z,2.50
2022-09-23T05:49:59.911Z,2.40
2022-09-23T05:52:31.579Z,2.87
2022-09-23T05:55:05.120Z,3.33
2022-09-23T05:57:39.741Z,2.60
2022-09-23T06:00:12.470Z,3.03
2022-09-23T06:02:43.174Z,2.80
2022-09-23T06:05:13.984Z,2.50
2022-09-23T06:07:44.821Z,2.90
2022-09-23T06:10:15.591Z,3.27
2022-09-23T06:12:48.972Z,3.00
2022-09-23T06:15:19.941Z,3.73
2022-09-23T06:17:52.720Z,3.70
2022-09-23T06:20:25.632Z,3.40
2022-09-23T06:22:58.228Z,3.50
2022-09-23T06:25:32.862Z,2.70
2022-09-23T06:28:10.083Z,3.20
2022-09-23T06:30:45.026Z,3.17
2022-09-23T06:33:23.875Z,3.20
2022-09-23T06:36:00.834Z,3.03
2022-09-23T06:38:34.603Z,2.80
2022-09-23T06:41:05.837Z,2.57
2022-09-23T06:43:41.843Z,2.47
2022-09-23T06:46:22.188Z,3.47
2022-09-23T06:48:59.437Z,2.70
2022-09-23T06:51:34.648Z,3.30
2022-09-23T06:54:11.170Z,4.33
2022-09-23T06:56:42.163Z,3.00
2022-09-23T06:59:17.015Z,2.90
2022-09-23T07:01:48.487Z,3.07
2022-09-23T07:04:19.524Z,2.87
2022-09-23T07:06:50.365Z,2.53
2022-09-23T07:09:22.931Z,2.70
2022-09-23T07:11:53.810Z,2.70
2022-09-23T07:14:27.465Z,2.93
2022-09-23T07:17:00.285Z,2.90
2022-09-23T07:19:31.021Z,2.43
2022-09-23T07:22:01.874Z,2.40
2022-09-23T07:24:34.466Z,2.10
2022-09-23T07:27:05.375Z,2.60
2022-09-23T07:29:47.946Z,2.13
2022-09-23T07:32:19.766Z,2.60
2022-09-23T07:34:51.297Z,2.20
2022-09-23T07:37:22.008Z,2.30
2022-09-23T07:39:52.900Z,2.50
2022-09-23T07:42:23.687Z,2.23
2022-09-23T07:44:57.218Z,2.03
2022-09-23T07:47:28.138Z,2.10
2022-09-23T07:49:58.844Z,2.30
2022-09-23T07:52:29.596Z,2.70
2022-09-23T07:55:02.474Z,1.80
2022-09-23T07:57:35.318Z,2.00
2022-09-23T08:00:10.187Z,1.90
2022-09-23T08:02:40.965Z,1.67
2022-09-23T08:05:14.853Z,2.00
2022-09-23T08:07:49.491Z,2.00
2022-09-23T08:10:21.123Z,1.90
2022-09-23T08:12:52.090Z,1.80
2022-09-23T08:15:25.396Z,2.00
2022-09-23T08:17:56.343Z,1.80
2022-09-23T08:20:42.572Z,1.83
2022-09-23T08:23:16.795Z,2.30
2022-09-23T08:25:48.781Z,1.70
2022-09-23T08:28:20.136Z,1.83
2022-09-23T08:30:53.704Z,1.80
2022-09-23T08:33:27.329Z,2.00
2022-09-23T08:36:05.638Z,1.77
2022-09-23T08:38:37.174Z,1.77
2022-09-23T08:41:16.174Z,1.70
2022-09-23T08:43:52.108Z,1.90
2022-09-23T08:46:31.233Z,1.80
2022-09-23T08:49:03.683Z,1.70
2022-09-23T08:51:45.208Z,1.70
2022-09-23T08:54:20.521Z,1.70
2022-09-23T08:56:56.086Z,1.93
2022-09-23T08:59:30.849Z,2.60
2022-09-23T09:02:08.904Z,2.50
2022-09-23T09:04:45.045Z,2.40
2022-09-23T09:07:37.841Z,2.20
2022-09-23T09:10:18.190Z,2.10
2022-09-23T09:12:50.918Z,1.57
2022-09-23T09:15:25.437Z,2.10
2022-09-23T09:18:04.921Z,1.90
2022-09-23T09:20:42.968Z,1.50
2022-09-23T09:23:24.444Z,1.50
2022-09-23T09:25:57.236Z,2.40
2022-09-23T09:28:31.144Z,1.80
2022-09-23T09:31:04.431Z,1.93
2022-09-23T09:33:46.273Z,2.00
2022-09-23T09:36:26.373Z,3.40
2022-09-23T09:39:02.203Z,2.40
2022-09-23T09:41:33.968Z,2.60
2022-09-23T09:44:19.931Z,2.50
2022-09-23T09:47:15.146Z,2.00
2022-09-23T09:49:52.687Z,2.10
2022-09-23T09:52:25.997Z,1.57
2022-09-23T09:55:01.394Z,2.10
2022-09-23T09:57:40.370Z,2.13
2022-09-23T10:00:40.857Z,2.00
2022-09-23T10:03:34.030Z,1.80
2022-09-23T10:06:17.820Z,1.60
2022-09-23T10:09:07.893Z,1.70
2022-09-23T10:11:39.233Z,1.73
2022-09-23T10:14:17.570Z,1.70
2022-09-23T10:16:52.106Z,1.80
2022-09-23T10:19:29.520Z,1.70
2022-09-23T10:22:11.596Z,1.93
2022-09-23T10:24:50.163Z,1.80
2022-09-23T10:27:37.421Z,1.90
2022-09-23T10:30:24.277Z,2.20
2022-09-23T10:32:59.609Z,1.93
2022-09-23T10:35:33.025Z,2.33
2022-09-23T10:38:06.365Z,2.60
2022-09-23T10:40:53.874Z,1.80
2022-09-23T10:43:47.008Z,1.80
2022-09-23T10:46:40.158Z,2.07
2022-09-23T10:49:27.526Z,1.73
2022-09-23T10:52:11.656Z,2.07
2022-09-23T10:54:54.900Z,1.83
2022-09-23T10:57:43.991Z,2.20
2022-09-23T11:00:24.051Z,2.10
2022-09-23T11:03:20.248Z,1.77
2022-09-23T11:06:07.101Z,2.00
2022-09-23T11:08:53.615Z,1.90
2022-09-23T11:11:40.220Z,1.70
2022-09-23T11:14:25.855Z,1.90
2022-09-23T11:17:20.887Z,2.10
2022-09-23T11:20:13.366Z,2.20
2022-09-23T11:23:01.147Z,1.90
2022-09-23T11:25:40.852Z,2.07
2022-09-23T11:28:40.752Z,2.30
2022-09-23T11:31:27.351Z,1.83
2022-09-23T11:34:14.233Z,1.63
2022-09-23T11:36:51.945Z,1.80
2022-09-23T11:39:27.793Z,1.80
2022-09-23T11:42:03.616Z,2.10
2022-09-23T11:44:42.908Z,1.60
2022-09-23T11:47:21.747Z,1.80
2022-09-23T11:49:56.436Z,1.90
2022-09-23T11:52:33.016Z,1.90
2022-09-23T11:55:20.279Z,1.87
2022-09-23T11:57:55.506Z,1.80
2022-09-23T12:00:34.565Z,1.73
2022-09-23T12:03:10.887Z,1.83
2022-09-23T12:05:47.443Z,1.80
2022-09-23T12:08:26.759Z,1.80
2022-09-23T12:11:07.293Z,2.20
2022-09-23T12:13:47.077Z,2.00
2022-09-23T12:16:44.148Z,1.67
2022-09-23T12:19:28.309Z,1.93
2022-09-23T12:22:13.366Z,1.60
2022-09-23T12:24:57.263Z,2.10
2022-09-23T12:27:36.160Z,2.00
2022-09-23T12:30:14.733Z,1.67
2022-09-23T12:32:48.158Z,1.73
2022-09-23T12:35:26.028Z,1.60
2022-09-23T12:37:57.310Z,1.60
2022-09-23T12:40:34.767Z,1.70
2022-09-23T12:43:08.193Z,1.63
2022-09-23T12:45:41.324Z,1.60
2022-09-23T12:48:44.995Z,1.50
2022-09-23T12:51:28.277Z,1.40
2022-09-23T12:54:23.878Z,1.57
2022-09-23T12:57:07.371Z,1.60
2022-09-23T13:00:00.351Z,1.60
2022-09-23T13:02:36.331Z,2.43
2022-09-23T13:05:37.229Z,1.80
2022-09-23T13:08:14.739Z,1.80
2022-09-23T13:10:49.814Z,2.10
2022-09-23T13:13:28.224Z,3.47
2022-09-23T13:16:12.160Z,2.40
2022-09-23T13:18:54.734Z,1.60
2022-09-23T13:22:11.165Z,1.70
2022-09-23T13:24:56.358Z,1.43
2022-09-23T13:27:34.146Z,1.47
2022-09-23T13:30:08.431Z,1.57
2022-09-23T13:32:42.307Z,1.20
2022-09-23T13:35:22.756Z,1.50
2022-09-23T13:37:53.905Z,1.40
2022-09-23T13:40:29.967Z,1.77
2022-09-23T13:43:04.085Z,1.40
2022-09-23T13:45:43.196Z,1.30
2022-09-23T13:48:20.103Z,1.30
2022-09-23T13:50:53.367Z,1.40
2022-09-23T13:53:27.382Z,1.47
2022-09-23T13:56:16.286Z,1.30
2022-09-23T13:58:47.141Z,1.83
2022-09-23T14:01:25.349Z,1.57
2022-09-23T14:03:59.922Z,1.50
2022-09-23T14:06:33.271Z,1.30
2022-09-23T14:09:05.024Z,1.50
2022-09-23T14:11:40.340Z,1.77
2022-09-23T14:14:17.058Z,1.47
2022-09-23T14:16:48.952Z,1.50
2022-09-23T14:19:21.207Z,1.20
2022-09-23T14:21:53.513Z,1.70
2022-09-23T14:24:28.697Z,1.63
2022-09-23T14:27:12.132Z,1.60
2022-09-23T14:29:45.891Z,1.73
2022-09-23T14:32:21.139Z,1.67
2022-09-23T14:34:54.897Z,2.50
2022-09-23T14:37:43.211Z,2.20
2022-09-23T14:40:19.480Z,2.00
2022-09-23T14:42:55.535Z,2.80
2022-09-23T14:45:29.068Z,1.80
2022-09-23T14:48:02.630Z,1.93
2022-09-23T14:50:47.502Z,1.80
2022-09-23T14:53:41.389Z,2.77
2022-09-23T14:56:20.441Z,2.27
2022-09-23T14:59:00.517Z,2.20
2022-09-23T15:01:39.982Z,3.37
2022-09-23T15:04:20.489Z,2.53
2022-09-23T15:06:54.717Z,3.10
2022-09-23T15:09:28.473Z,3.40
2022-09-23T15:12:04.922Z,2.80
2022-09-23T15:14:43.142Z,3.67
2022-09-23T15:17:34.134Z,3.10
2022-09-23T15:20:08.331Z,2.03
2022-09-23T15:22:46.722Z,2.70
2022-09-23T15:25:22.172Z,2.13
2022-09-23T15:28:05.881Z,2.37
2022-09-23T15:30:48.903Z,2.43
2022-09-23T15:33:20.411Z,2.03
2022-09-23T15:35:51.688Z,2.63
2022-09-23T15:38:22.748Z,2.10
2022-09-23T15:40:53.980Z,2.53
2022-09-23T15:43:26.904Z,2.20
2022-09-23T15:46:02.339Z,2.17
2022-09-23T15:48:39.376Z,3.80
2022-09-23T15:51:12.678Z,6.20
2022-09-23T15:53:43.400Z,6.63
2022-09-23T15:56:14.190Z,5.23
2022-09-23T15:58:45.025Z,4.70
2022-09-23T16:01:23.857Z,3.90
2022-09-23T16:03:56.268Z,2.77
2022-09-23T16:06:27.893Z,3.00
2022-09-23T16:08:59.427Z,3.20
2022-09-23T16:11:32.867Z,3.20
2022-09-23T16:14:07.756Z,4.40
2022-09-23T16:16:42.255Z,5.23
2022-09-23T16:19:16.043Z,3.27
2022-09-23T16:21:47.308Z,3.10
2022-09-23T16:24:22.517Z,2.77
2022-09-23T16:26:59.878Z,2.40
2022-09-23T16:29:31.222Z,2.30
2022-09-23T16:32:05.071Z,2.20
2022-09-23T16:34:36.552Z,2.40
2022-09-23T16:37:07.416Z,2.73
2022-09-23T16:39:40.711Z,2.77
2022-09-23T16:42:11.682Z,3.00
2022-09-23T16:44:44.918Z,4.07
2022-09-23T16:47:20.716Z,3.43
2022-09-23T16:49:51.461Z,3.33
2022-09-23T16:52:23.870Z,3.70
2022-09-23T16:54:56.448Z,2.93
2022-09-23T16:57:28.040Z,3.20
2022-09-23T17:00:11.772Z,3.83
2022-09-23T17:02:57.619Z,3.60
2022-09-23T17:05:30.516Z,3.60
2022-09-23T17:08:10.742Z,3.47
2022-09-23T17:10:41.752Z,3.40
2022-09-23T17:13:15.011Z,3.57
2022-09-23T17:15:46.164Z,3.00
2022-09-23T17:18:20.754Z,3.80
2022-09-23T17:21:02.384Z,3.17
2022-09-23T17:23:35.322Z,3.50
2022-09-23T17:26:09.753Z,3.40
2022-09-23T17:28:40.933Z,3.30
2022-09-23T17:31:12.820Z,3.10
2022-09-23T17:33:47.652Z,3.30
2022-09-23T17:36:21.996Z,3.47
2022-09-23T17:38:55.768Z,3.33
2022-09-23T17:41:26.872Z,3.20
2022-09-23T17:44:00.726Z,3.13
2022-09-23T17:46:32.118Z,3.77
2022-09-23T17:49:06.782Z,5.10
2022-09-23T17:51:37.576Z,4.03
2022-09-23T17:54:08.556Z,4.33
2022-09-23T17:56:39.477Z,4.80
2022-09-23T17:59:14.028Z,5.20
2022-09-23T18:01:47.771Z,5.10
2022-09-23T18:04:21.558Z,6.63
2022-09-23T18:06:55.127Z,5.80
2022-09-23T18:09:26.101Z,5.07
2022-09-23T18:11:57.808Z,5.27
2022-09-23T18:14:28.903Z,4.30
2022-09-23T18:16:59.575Z,5.23
2022-09-23T18:19:33.034Z,4.20
2022-09-23T18:22:03.854Z,5.80
2022-09-23T18:24:40.517Z,4.90
2022-09-23T18:27:17.347Z,9.30
2022-09-23T18:29:48.146Z,7.77
2022-09-23T18:32:19.131Z,11.00
2022-09-23T18:34:52.453Z,11.27
2022-09-23T18:37:24.810Z,8.67
2022-09-23T18:39:55.570Z,6.60
2022-09-23T18:42:26.997Z,7.27
2022-09-23T18:44:58.993Z,6.80
2022-09-23T18:47:43.364Z,6.13
2022-09-23T18:50:29.316Z,7.13
2022-09-23T18:53:03.173Z,5.67
2022-09-23T18:55:36.869Z,5.10
2022-09-23T18:58:10.433Z,5.17
2022-09-23T19:00:42.719Z,4.87
2022-09-23T19:03:15.719Z,4.40
2022-09-23T19:05:49.573Z,5.10
2022-09-23T19:08:22.624Z,5.30
2022-09-23T19:10:58.427Z,4.53
2022-09-23T19:13:29.289Z,4.00
2022-09-23T19:16:04.909Z,4.80
2022-09-23T19:18:39.256Z,4.80
2022-09-23T19:21:18.494Z,4.97
2022-09-23T19:23:51.266Z,4.87
2022-09-23T19:26:24.832Z,4.00
2022-09-23T19:28:59.699Z,4.93
2022-09-23T19:31:33.367Z,5.90
2022-09-23T19:34:10.652Z,5.50
2022-09-23T19:36:46.161Z,4.60
2022-09-23T19:39:19.629Z,5.50
2022-09-23T19:41:51.085Z,7.07
2022-09-23T19:44:21.872Z,5.70
2022-09-23T19:46:56.394Z,5.63
2022-09-23T19:49:28.586Z,4.83
2022-09-23T19:52:05.555Z,4.73
2022-09-23T19:54:38.211Z,4.70
2022-09-23T19:57:09.506Z,4.57
2022-09-23T19:59:42.388Z,3.70
2022-09-23T20:02:14.217Z,4.43
2022-09-23T20:04:45.188Z,3.73
2022-09-23T20:07:23.037Z,4.00
2022-09-23T20:09:55.847Z,4.00
2022-09-23T20:12:31.316Z,3.50
2022-09-23T20:15:02.520Z,4.30
2022-09-23T20:17:33.265Z,4.17
2022-09-23T20:20:04.496Z,3.90
2022-09-23T20:22:41.452Z,4.30
2022-09-23T20:25:14.764Z,4.70
2022-09-23T20:27:42.893Z,3.87
2022-09-23T20:30:16.610Z,3.73
2022-09-23T20:32:48.607Z,4.50
2022-09-23T20:35:21.392Z,3.47
2022-09-23T20:37:55.112Z,3.50
2022-09-23T20:40:25.808Z,3.63
2022-09-23T20:42:56.661Z,3.50
2022-09-23T20:45:27.358Z,3.50
2022-09-23T20:48:00.198Z,3.50
2022-09-23T20:50:31.344Z,3.73
2022-09-23T20:53:07.032Z,4.33
2022-09-23T20:55:38.022Z,3.77
2022-09-23T20:58:09.347Z,4.00
2022-09-23T21:00:41.406Z,4.10
2022-09-23T21:03:12.092Z,4.57
2022-09-23T21:05:44.199Z,3.97
2022-09-23T21:08:18.748Z,5.00
2022-09-23T21:10:56.507Z,3.67
2022-09-23T21:13:27.552Z,3.33
2022-09-23T21:15:58.342Z,2.90
2022-09-23T21:18:30.252Z,3.40
2022-09-23T21:21:02.696Z,3.00
2022-09-23T21:23:40.688Z,2.90
2022-09-23T21:26:14.780Z,3.10
2022-09-23T21:28:50.668Z,2.30
2022-09-23T21:31:25.879Z,3.20
2022-09-23T21:33:58.187Z,3.30
2022-09-23T21:36:29.933Z,3.00
2022-09-23T21:39:07.414Z,3.20
2022-09-23T21:41:41.017Z,3.50
2022-09-23T21:44:13.044Z,3.63
2022-09-23T21:46:43.786Z,3.10
2022-09-23T21:49:15.676Z,3.00
2022-09-23T21:51:47.715Z,3.40
2022-09-23T21:54:21.185Z,3.60
2022-09-23T21:56:51.930Z,3.63
2022-09-23T21:59:23.157Z,3.10
2022-09-23T22:01:54.633Z,2.97
2022-09-23T22:04:27.458Z,3.60
2022-09-23T22:07:02.042Z,3.33
2022-09-23T22:09:35.415Z,3.70
2022-09-23T22:12:11.761Z,3.00
2022-09-23T22:14:46.131Z,3.57
2022-09-23T22:17:17.490Z,3.77
2022-09-23T22:19:51.254Z,3.50
2022-09-23T22:22:24.558Z,3.93
2022-09-23T22:24:57.817Z,3.50
2022-09-23T22:27:28.653Z,3.30
2022-09-23T22:30:11.919Z,3.37
2022-09-23T22:32:52.920Z,3.30
2022-09-23T22:35:26.026Z,2.77
2022-09-23T22:38:03.001Z,3.90
2022-09-23T22:40:39.438Z,3.50
2022-09-23T22:43:10.801Z,3.20
2022-09-23T22:45:41.556Z,2.80
2022-09-23T22:48:13.673Z,3.80
2022-09-23T22:50:45.666Z,3.17
2022-09-23T22:53:16.850Z,3.17
2022-09-23T22:56:01.120Z,3.40
2022-09-23T22:58:32.936Z,3.47
2022-09-23T23:01:03.972Z,4.07
2022-09-23T23:03:35.788Z,4.00
2022-09-23T23:06:07.797Z,3.80
2022-09-23T23:08:42.304Z,4.10
2022-09-23T23:11:15.534Z,3.90
2022-09-23T23:13:46.370Z,3.27
2022-09-23T23:16:24.583Z,3.57
2022-09-23T23:18:56.108Z,3.90
2022-09-23T23:21:27.290Z,4.00
2022-09-23T23:23:58.216Z,4.80
2022-09-23T23:26:32.830Z,3.83
2022-09-23T23:29:04.309Z,4.70
2022-09-23T23:31:35.919Z,3.50
2022-09-23T23:34:08.330Z,3.90
2022-09-23T23:36:39.429Z,4.10
2022-09-23T23:39:11.747Z,4.60
2022-09-23T23:41:46.820Z,3.67
2022-09-23T23:44:17.729Z,4.27
2022-09-23T23:46:49.202Z,3.80
2022-09-23T23:49:21.448Z,4.10
2022-09-23T23:51:54.693Z,4.50
2022-09-23T23:54:25.754Z,4.20
2022-09-23T23:57:00.147Z,3.43
2022-09-23T23:59:31.054Z,3.57
